createdAt,value
2022-09-11T00:00:48.734Z,15.8
2022-09-11T00:01:52.393Z,15.8
2022-09-11T00:02:55.568Z,15.8
2022-09-11T00:03:59.100Z,15.8
2022-09-11T00:05:01.919Z,15.9
2022-09-11T00:06:05.153Z,15.9
2022-09-11T00:07:07.971Z,15.9
2022-09-11T00:08:10.757Z,15.9
2022-09-11T00:09:13.724Z,15.9
2022-09-11T00:10:16.912Z,15.9
2022-09-11T00:11:20.644Z,15.9
2022-09-11T00:12:23.646Z,15.9
2022-09-11T00:13:26.158Z,15.8
2022-09-11T00:14:29.150Z,15.8
2022-09-11T00:15:31.437Z,15.8
2022-09-11T00:16:33.871Z,15.8
2022-09-11T00:17:37.608Z,15.9
2022-09-11T00:18:40.596Z,15.9
2022-09-11T00:19:43.650Z,15.9
2022-09-11T00:20:46.517Z,15.9
2022-09-11T00:21:50.244Z,15.9
2022-09-11T00:22:52.802Z,15.9
2022-09-11T00:23:55.343Z,15.8
2022-09-11T00:24:57.856Z,15.9
2022-09-11T00:26:01.006Z,15.8
2022-09-11T00:27:04.809Z,15.8
2022-09-11T00:28:07.802Z,15.8
2022-09-11T00:29:10.404Z,15.8
2022-09-11T00:30:13.230Z,15.8
2022-09-11T00:31:16.586Z,15.8
2022-09-11T00:32:19.259Z,15.8
2022-09-11T00:33:22.029Z,15.8
2022-09-11T00:34:25.713Z,15.8
2022-09-11T00:35:28.570Z,15.8
2022-09-11T00:36:30.993Z,15.9
2022-09-11T00:37:34.030Z,15.9
2022-09-11T00:38:36.621Z,15.9
2022-09-11T00:39:40.364Z,15.9
2022-09-11T00:40:43.321Z,15.9
2022-09-11T00:41:46.180Z,15.9
2022-09-11T00:42:50.046Z,15.9
2022-09-11T00:43:54.054Z,15.9
2022-09-11T00:44:57.584Z,15.9
2022-09-11T00:46:00.889Z,15.9
2022-09-11T00:47:03.659Z,15.9
2022-09-11T00:48:06.264Z,15.9
2022-09-11T00:49:09.260Z,15.8
2022-09-11T00:50:12.684Z,15.9
2022-09-11T00:51:15.308Z,15.8
2022-09-11T00:52:19.049Z,15.9
2022-09-11T00:53:21.640Z,15.8
2022-09-11T00:54:24.786Z,15.8
2022-09-11T00:55:28.204Z,15.8
2022-09-11T00:56:31.706Z,15.8
2022-09-11T00:57:34.554Z,15.8
2022-09-11T00:58:38.435Z,15.7
2022-09-11T00:59:42.463Z,15.7
2022-09-11T01:00:45.578Z,15.7
2022-09-11T01:01:48.667Z,15.6
2022-09-11T01:02:51.630Z,15.7
2022-09-11T01:03:54.291Z,15.6
2022-09-11T01:04:57.984Z,15.6
2022-09-11T01:06:00.417Z,15.7
2022-09-11T01:07:02.849Z,15.6
2022-09-11T01:08:05.661Z,15.6
2022-09-11T01:09:09.192Z,15.5
2022-09-11T01:10:12.257Z,15.5
2022-09-11T01:11:15.433Z,15.4
2022-09-11T01:12:18.311Z,15.5
2022-09-11T01:13:21.371Z,15.4
2022-09-11T01:14:25.208Z,15.4
2022-09-11T01:15:28.398Z,15.4
2022-09-11T01:16:31.829Z,15.5
2022-09-11T01:17:34.727Z,15.4
2022-09-11T01:18:37.799Z,15.4
2022-09-11T01:19:40.388Z,15.4
2022-09-11T01:20:43.276Z,15.4
2022-09-11T01:21:45.516Z,15.5
2022-09-11T01:22:48.121Z,15.5
2022-09-11T01:23:50.359Z,15.6
2022-09-11T01:24:53.878Z,15.5
2022-09-11T01:25:57.026Z,15.6
2022-09-11T01:26:59.252Z,15.5
2022-09-11T01:28:02.177Z,15.4
2022-09-11T01:29:05.866Z,15.5
2022-09-11T01:30:13.586Z,15.5
2022-09-11T01:31:17.303Z,15.5
2022-09-11T01:32:20.147Z,15.4
2022-09-11T01:33:23.597Z,15.4
2022-09-11T01:34:27.061Z,15.4
2022-09-11T01:35:29.385Z,15.4
2022-09-11T01:36:32.191Z,15.4
2022-09-11T01:37:35.626Z,15.4
2022-09-11T01:38:38.454Z,15.4
2022-09-11T01:39:41.989Z,15.3
2022-09-11T01:40:45.509Z,15.3
2022-09-11T01:41:48.577Z,15.3
2022-09-11T01:42:50.965Z,15.3
2022-09-11T01:43:54.393Z,15.3
2022-09-11T01:44:57.532Z,15.3
2022-09-11T01:46:01.273Z,15.3
2022-09-11T01:47:04.845Z,15.3
2022-09-11T01:48:07.663Z,15.3
2022-09-11T01:49:10.524Z,15.3
2022-09-11T01:50:13.865Z,15.3
2022-09-11T01:51:16.446Z,15.3
2022-09-11T01:52:18.878Z,15.3
2022-09-11T01:53:22.315Z,15.3
2022-09-11T01:54:25.378Z,15.4
2022-09-11T01:55:28.451Z,15.4
2022-09-11T01:56:31.863Z,15.4
2022-09-11T01:57:34.703Z,15.4
2022-09-11T01:58:37.861Z,15.3
2022-09-11T01:59:41.357Z,15.3
2022-09-11T02:00:44.292Z,15.3
2022-09-11T02:01:48.428Z,15.3
2022-09-11T02:02:51.265Z,15.3
2022-09-11T02:03:54.349Z,15.3
2022-09-11T02:04:57.579Z,15.4
2022-09-11T02:06:00.285Z,15.3
2022-09-11T02:07:03.378Z,15.3
2022-09-11T02:08:06.169Z,15.3
2022-09-11T02:09:09.518Z,15.4
2022-09-11T02:10:12.324Z,15.4
2022-09-11T02:11:14.556Z,15.4
2022-09-11T02:12:17.143Z,15.4
2022-09-11T02:13:20.493Z,15.4
2022-09-11T02:14:23.371Z,15.4
2022-09-11T02:15:26.243Z,15.4
2022-09-11T02:16:29.966Z,15.3
2022-09-11T02:17:34.106Z,15.4
2022-09-11T02:18:37.253Z,15.4
2022-09-11T02:19:40.339Z,15.4
2022-09-11T02:20:43.135Z,15.3
2022-09-11T02:21:45.848Z,15.4
2022-09-11T02:22:49.077Z,15.3
2022-09-11T02:23:52.146Z,15.4
2022-09-11T02:24:54.689Z,15.3
2022-09-11T02:25:58.402Z,15.4
2022-09-11T02:27:02.019Z,15.4
2022-09-11T02:28:05.245Z,15.4
2022-09-11T02:29:07.964Z,15.4
2022-09-11T02:30:10.752Z,15.3
2022-09-11T02:31:13.902Z,15.3
2022-09-11T02:32:17.394Z,15.3
2022-09-11T02:33:20.905Z,15.3
2022-09-11T02:34:24.285Z,15.3
2022-09-11T02:35:26.796Z,15.3
2022-09-11T02:36:29.393Z,15.4
2022-09-11T02:37:32.551Z,15.4
2022-09-11T02:38:35.708Z,15.4
2022-09-11T02:39:39.056Z,15.3
2022-09-11T02:40:41.723Z,15.4
2022-09-11T02:41:44.809Z,15.3
2022-09-11T02:42:48.296Z,15.4
2022-09-11T02:43:51.172Z,15.4
2022-09-11T02:44:53.891Z,15.3
2022-09-11T02:45:56.736Z,15.4
2022-09-11T02:46:59.080Z,15.3
2022-09-11T02:48:02.268Z,15.1
2022-09-11T02:49:06.305Z,15.3
2022-09-11T02:50:09.731Z,15.3
2022-09-11T02:51:13.001Z,15.3
2022-09-11T02:52:15.806Z,15.3
2022-09-11T02:53:18.398Z,15.4
2022-09-11T02:54:20.995Z,15.4
2022-09-11T02:55:23.872Z,15.4
2022-09-11T02:56:26.467Z,15.4
2022-09-11T02:57:29.917Z,15.4
2022-09-11T02:58:32.314Z,15.4
2022-09-11T02:59:35.584Z,15.4
2022-09-11T03:00:38.624Z,15.4
2022-09-11T03:01:41.056Z,15.4
2022-09-11T03:02:44.137Z,15.4
2022-09-11T03:03:48.648Z,15.4
2022-09-11T03:04:52.667Z,15.4
2022-09-11T03:05:55.731Z,15.4
2022-09-11T03:06:59.083Z,15.4
2022-09-11T03:08:01.981Z,15.3
2022-09-11T03:09:04.384Z,15.3
2022-09-11T03:10:07.164Z,15.3
2022-09-11T03:11:10.415Z,15.4
2022-09-11T03:12:14.058Z,15.4
2022-09-11T03:13:16.643Z,15.4
2022-09-11T03:14:19.448Z,15.4
2022-09-11T03:15:21.600Z,15.4
2022-09-11T03:16:25.000Z,15.4
2022-09-11T03:17:28.105Z,15.4
2022-09-11T03:18:30.899Z,15.4
2022-09-11T03:19:34.030Z,15.4
2022-09-11T03:20:37.881Z,15.4
2022-09-11T03:21:40.694Z,15.5
2022-09-11T03:22:43.761Z,15.4
2022-09-11T03:23:45.815Z,15.3
2022-09-11T03:24:48.329Z,15.4
2022-09-11T03:25:50.647Z,15.4
2022-09-11T03:26:53.814Z,15.4
2022-09-11T03:27:56.684Z,15.4
2022-09-11T03:28:59.281Z,15.4
2022-09-11T03:30:02.349Z,15.5
2022-09-11T03:31:05.881Z,15.4
2022-09-11T03:32:08.880Z,15.4
2022-09-11T03:33:11.675Z,15.3
2022-09-11T03:34:14.469Z,15.3
2022-09-11T03:35:17.107Z,15.3
2022-09-11T03:36:20.589Z,15.3
2022-09-11T03:37:23.954Z,15.4
2022-09-11T03:38:27.490Z,15.4
2022-09-11T03:39:30.479Z,15.4
2022-09-11T03:40:33.824Z,15.4
2022-09-11T03:41:36.977Z,15.4
2022-09-11T03:42:40.390Z,15.4
2022-09-11T03:43:43.445Z,15.4
2022-09-11T03:44:47.354Z,15.4
2022-09-11T03:45:50.333Z,15.4
2022-09-11T03:46:53.447Z,15.4
2022-09-11T03:47:56.964Z,15.4
2022-09-11T03:48:59.559Z,15.4
2022-09-11T03:50:02.415Z,15.4
2022-09-11T03:51:05.959Z,15.4
2022-09-11T03:52:09.733Z,15.4
2022-09-11T03:53:13.273Z,15.4
2022-09-11T03:54:16.605Z,15.4
2022-09-11T03:55:19.386Z,15.4
2022-09-11T03:56:23.158Z,15.4
2022-09-11T03:57:25.670Z,15.4
2022-09-11T03:58:28.106Z,15.4
2022-09-11T03:59:31.527Z,15.5
2022-09-11T04:00:34.407Z,15.4
2022-09-11T04:01:36.918Z,15.4
2022-09-11T04:02:39.519Z,15.4
2022-09-11T04:03:42.706Z,15.4
2022-09-11T04:04:46.002Z,15.4
2022-09-11T04:05:48.519Z,15.4
2022-09-11T04:06:51.295Z,15.3
2022-09-11T04:07:54.802Z,15.4
2022-09-11T04:08:57.615Z,15.3
2022-09-11T04:10:00.514Z,15.3
2022-09-11T04:11:03.932Z,15.3
2022-09-11T04:12:07.003Z,15.3
2022-09-11T04:13:09.515Z,15.3
2022-09-11T04:14:12.308Z,15.3
2022-09-11T04:15:16.080Z,15.4
2022-09-11T04:16:19.499Z,15.3
2022-09-11T04:17:22.426Z,15.3
2022-09-11T04:18:25.688Z,15.3
2022-09-11T04:19:28.743Z,15.3
2022-09-11T04:20:31.688Z,15.3
2022-09-11T04:21:33.933Z,15.2
2022-09-11T04:22:36.773Z,15.2
2022-09-11T04:23:40.993Z,15.2
2022-09-11T04:24:44.121Z,15.2
2022-09-11T04:25:47.459Z,15.3
2022-09-11T04:26:50.610Z,15.3
2022-09-11T04:27:53.317Z,15.2
2022-09-11T04:28:56.760Z,15.3
2022-09-11T04:29:59.279Z,15.2
2022-09-11T04:31:02.744Z,15.3
2022-09-11T04:32:05.919Z,15.3
2022-09-11T04:33:08.870Z,15.3
2022-09-11T04:34:11.869Z,15.3
2022-09-11T04:35:14.996Z,15.3
2022-09-11T04:36:18.149Z,15.2
2022-09-11T04:37:21.293Z,15.3
2022-09-11T04:38:24.605Z,15.3
2022-09-11T04:39:28.651Z,15.2
2022-09-11T04:40:32.011Z,15.2
2022-09-11T04:41:35.460Z,15.2
2022-09-11T04:42:38.328Z,15.2
2022-09-11T04:43:42.880Z,15.2
2022-09-11T04:44:45.336Z,15.2
2022-09-11T04:45:48.750Z,15.2
2022-09-11T04:46:51.575Z,15.2
2022-09-11T04:47:54.085Z,15.2
2022-09-11T04:48:57.255Z,15.2
2022-09-11T04:50:00.251Z,15.2
2022-09-11T04:51:02.844Z,15.2
2022-09-11T04:52:06.291Z,15.2
2022-09-11T04:53:08.879Z,15.2
2022-09-11T04:54:12.369Z,15.2
2022-09-11T04:55:16.496Z,15.2
2022-09-11T04:56:19.670Z,15.1
2022-09-11T04:57:22.534Z,15.2
2022-09-11T04:58:24.776Z,15.2
2022-09-11T04:59:27.664Z,15.2
2022-09-11T05:00:30.414Z,15.2
2022-09-11T05:01:32.975Z,15.2
2022-09-11T05:02:36.622Z,15.2
2022-09-11T05:03:39.987Z,15.2
2022-09-11T05:04:43.289Z,15.3
2022-09-11T05:05:46.819Z,15.3
2022-09-11T05:06:49.635Z,15.2
2022-09-11T05:07:52.703Z,15.2
2022-09-11T05:08:55.774Z,15.2
2022-09-11T05:09:59.233Z,15.3
2022-09-11T05:11:03.086Z,15.2
2022-09-11T05:12:06.188Z,15.2
2022-09-11T05:13:09.338Z,15.2
2022-09-11T05:14:12.441Z,15.3
2022-09-11T05:15:15.045Z,15.3
2022-09-11T05:16:17.729Z,15.3
2022-09-11T05:17:20.957Z,15.3
2022-09-11T05:18:24.017Z,15.2
2022-09-11T05:19:26.198Z,15.2
2022-09-11T05:20:29.989Z,15.3
2022-09-11T05:21:32.664Z,15.3
2022-09-11T05:22:35.739Z,15.3
2022-09-11T05:23:38.427Z,15.2
2022-09-11T05:24:42.249Z,15.1
2022-09-11T05:25:45.373Z,15.2
2022-09-11T05:26:49.135Z,15.2
2022-09-11T05:27:51.939Z,15.2
2022-09-11T05:28:55.001Z,15.2
2022-09-11T05:29:57.782Z,15.3
2022-09-11T05:31:00.380Z,15.2
2022-09-11T05:32:03.816Z,15.2
2022-09-11T05:33:06.687Z,15.2
2022-09-11T05:34:09.279Z,15.3
2022-09-11T05:35:12.156Z,15.2
2022-09-11T05:36:15.903Z,15.2
2022-09-11T05:37:19.326Z,15.2
2022-09-11T05:38:22.562Z,15.3
2022-09-11T05:39:25.888Z,15.3
2022-09-11T05:40:27.989Z,15.3
2022-09-11T05:41:31.762Z,15.4
2022-09-11T05:42:35.814Z,15.4
2022-09-11T05:43:38.378Z,15.5
2022-09-11T05:44:41.947Z,15.4
2022-09-11T05:45:45.685Z,15.4
2022-09-11T05:46:49.451Z,15.3
2022-09-11T05:47:57.356Z,15.4
2022-09-11T05:49:00.152Z,15.5
2022-09-11T05:50:02.585Z,15.5
2022-09-11T05:51:06.052Z,15.5
2022-09-11T05:52:09.169Z,15.5
2022-09-11T05:53:12.655Z,15.5
2022-09-11T05:54:15.179Z,15.5
2022-09-11T05:55:18.045Z,15.6
2022-09-11T05:56:21.108Z,15.6
2022-09-11T05:57:24.861Z,15.6
2022-09-11T05:58:28.350Z,15.7
2022-09-11T05:59:31.533Z,15.7
2022-09-11T06:00:34.322Z,15.6
2022-09-11T06:01:37.582Z,15.7
2022-09-11T06:02:40.377Z,15.6
2022-09-11T06:03:44.478Z,15.6
2022-09-11T06:04:46.397Z,15.6
2022-09-11T06:05:49.535Z,15.6
2022-09-11T06:06:52.987Z,15.5
2022-09-11T06:07:55.921Z,15.6
2022-09-11T06:08:59.658Z,15.6
2022-09-11T06:10:04.808Z,15.6
2022-09-11T06:11:07.647Z,15.6
2022-09-11T06:12:10.815Z,15.6
2022-09-11T06:13:14.048Z,15.6
2022-09-11T06:14:17.542Z,15.7
2022-09-11T06:15:47.825Z,15.7
2022-09-11T06:16:51.602Z,15.7
2022-09-11T06:17:54.743Z,15.7
2022-09-11T06:18:57.872Z,15.6
2022-09-11T06:20:00.571Z,15.6
2022-09-11T06:21:03.752Z,15.7
2022-09-11T06:22:06.627Z,15.7
2022-09-11T06:23:10.775Z,15.7
2022-09-11T06:24:13.854Z,15.8
2022-09-11T06:25:16.832Z,15.7
2022-09-11T06:26:19.547Z,15.8
2022-09-11T06:27:22.418Z,15.8
2022-09-11T06:28:25.627Z,15.9
2022-09-11T06:29:29.678Z,15.8
2022-09-11T06:30:33.081Z,15.8
2022-09-11T06:31:36.235Z,15.8
2022-09-11T06:32:38.926Z,15.9
2022-09-11T06:33:42.463Z,16
2022-09-11T06:34:44.738Z,16
2022-09-11T06:35:47.793Z,16
2022-09-11T06:36:53.778Z,16
2022-09-11T06:37:56.207Z,16
2022-09-11T06:38:58.721Z,16
2022-09-11T06:40:01.783Z,16
2022-09-11T06:41:04.672Z,15.9
2022-09-11T06:42:08.297Z,15.9
2022-09-11T06:43:11.729Z,15.9
2022-09-11T06:44:15.421Z,15.9
2022-09-11T06:45:18.988Z,16
2022-09-11T06:46:22.187Z,16
2022-09-11T06:47:25.625Z,16
2022-09-11T06:48:29.359Z,16
2022-09-11T06:49:32.704Z,16
2022-09-11T06:50:37.992Z,16.1
2022-09-11T06:51:41.136Z,16.1
2022-09-11T06:52:44.279Z,16
2022-09-11T06:53:46.873Z,16.1
2022-09-11T06:54:49.945Z,16.2
2022-09-11T06:55:53.452Z,16.3
2022-09-11T06:56:56.254Z,16.2
2022-09-11T06:57:59.472Z,16.3
2022-09-11T06:59:01.909Z,16.4
2022-09-11T07:00:05.069Z,16.5
2022-09-11T07:01:09.577Z,16.5
2022-09-11T07:02:13.974Z,16.5
2022-09-11T07:03:16.437Z,16.4
2022-09-11T07:04:19.525Z,16.5
2022-09-11T07:05:22.695Z,16.5
2022-09-11T07:06:26.690Z,16.5
2022-09-11T07:07:29.395Z,16.4
2022-09-11T07:08:32.304Z,16.5
2022-09-11T07:09:35.737Z,16.5
2022-09-11T07:10:38.806Z,16.5
2022-09-11T07:11:41.511Z,16.6
2022-09-11T07:12:44.389Z,16.6
2022-09-11T07:13:47.936Z,16.6
2022-09-11T07:14:50.654Z,16.7
2022-09-11T07:15:53.651Z,16.7
2022-09-11T07:16:57.307Z,16.7
2022-09-11T07:18:00.180Z,16.8
2022-09-11T07:19:03.174Z,16.8
2022-09-11T07:20:06.601Z,16.8
2022-09-11T07:21:09.977Z,16.8
2022-09-11T07:22:13.430Z,16.9
2022-09-11T07:23:16.384Z,16.9
2022-09-11T07:24:19.263Z,16.9
2022-09-11T07:25:22.679Z,16.8
2022-09-11T07:26:25.278Z,16.8
2022-09-11T07:27:28.379Z,16.8
2022-09-11T07:28:32.398Z,16.8
2022-09-11T07:29:35.194Z,16.9
2022-09-11T07:30:38.295Z,17
2022-09-11T07:31:41.727Z,16.9
2022-09-11T07:32:45.507Z,17
2022-09-11T07:33:48.327Z,17.1
2022-09-11T07:34:51.483Z,17.2
2022-09-11T07:35:54.005Z,17
2022-09-11T07:36:57.078Z,17
2022-09-11T07:38:00.204Z,17.1
2022-09-11T07:39:03.634Z,17.2
2022-09-11T07:40:07.402Z,17.3
2022-09-11T07:41:09.766Z,17.2
2022-09-11T07:42:12.487Z,17.1
2022-09-11T07:43:15.375Z,16.9
2022-09-11T07:44:18.852Z,17.1
2022-09-11T07:45:24.668Z,17.2
2022-09-11T07:46:27.549Z,17.3
2022-09-11T07:47:31.346Z,17.5
2022-09-11T07:48:35.194Z,17.5
2022-09-11T07:49:38.076Z,17.6
2022-09-11T07:50:40.939Z,17.8
2022-09-11T07:51:43.813Z,17.9
2022-09-11T07:52:47.182Z,18
2022-09-11T07:53:49.763Z,18
2022-09-11T07:54:52.905Z,17.9
2022-09-11T07:55:55.697Z,17.9
2022-09-11T07:56:59.128Z,17.9
2022-09-11T07:58:02.295Z,17.9
2022-09-11T07:59:05.175Z,17.6
2022-09-11T08:00:08.605Z,17.7
2022-09-11T08:01:11.035Z,17.6
2022-09-11T08:02:14.204Z,17.7
2022-09-11T08:03:17.425Z,17.8
2022-09-11T08:04:20.902Z,17.9
2022-09-11T08:05:24.327Z,17.7
2022-09-11T08:06:27.485Z,17.6
2022-09-11T08:07:30.840Z,17.5
2022-09-11T08:08:33.713Z,17.7
2022-09-11T08:09:36.516Z,17.6
2022-09-11T08:10:39.393Z,17.7
2022-09-11T08:11:42.491Z,17.6
2022-09-11T08:12:45.281Z,17.8
2022-09-11T08:13:48.628Z,17.8
2022-09-11T08:14:51.137Z,17.8
2022-09-11T08:15:54.393Z,17.8
2022-09-11T08:16:57.830Z,18
2022-09-11T08:17:59.983Z,18
2022-09-11T08:19:03.189Z,18.2
2022-09-11T08:20:06.961Z,18.3
2022-09-11T08:21:14.500Z,18.4
2022-09-11T08:22:17.642Z,18.4
2022-09-11T08:23:20.826Z,18.3
2022-09-11T08:24:24.557Z,18.2
2022-09-11T08:25:28.280Z,18.2
2022-09-11T08:26:31.346Z,18.1
2022-09-11T08:27:34.995Z,17.9
2022-09-11T08:28:38.206Z,18
2022-09-11T08:29:41.373Z,18.1
2022-09-11T08:30:44.252Z,18
2022-09-11T08:31:47.691Z,18
2022-09-11T08:32:50.477Z,18.1
2022-09-11T08:33:53.740Z,18.1
2022-09-11T08:34:57.251Z,17.9
2022-09-11T08:36:00.820Z,17.7
2022-09-11T08:37:04.284Z,17.9
2022-09-11T08:38:07.147Z,17.9
2022-09-11T08:39:10.071Z,17.9
2022-09-11T08:40:13.916Z,18
2022-09-11T08:41:17.157Z,18
2022-09-11T08:42:20.219Z,18
2022-09-11T08:43:23.390Z,18.2
2022-09-11T08:44:26.103Z,18.2
2022-09-11T08:45:29.160Z,18.4
2022-09-11T08:46:31.965Z,18.5
2022-09-11T08:47:35.327Z,18.6
2022-09-11T08:48:38.424Z,18.9
2022-09-11T08:49:42.145Z,19.1
2022-09-11T08:50:44.982Z,19.3
2022-09-11T08:51:48.449Z,19.6
2022-09-11T08:52:51.540Z,19.7
2022-09-11T08:53:54.126Z,19.8
2022-09-11T08:54:57.446Z,19.9
2022-09-11T08:56:01.211Z,19.8
2022-09-11T08:57:03.996Z,20
2022-09-11T08:58:06.791Z,20.2
2022-09-11T08:59:09.688Z,20.3
2022-09-11T09:00:12.412Z,20.5
2022-09-11T09:01:16.212Z,20.4
2022-09-11T09:02:19.060Z,20.4
2022-09-11T09:03:22.490Z,20.3
2022-09-11T09:04:25.711Z,20.5
2022-09-11T09:05:28.573Z,20.8
2022-09-11T09:06:31.422Z,20.9
2022-09-11T09:07:35.000Z,20.9
2022-09-11T09:08:37.539Z,21
2022-09-11T09:09:39.229Z,21.2
2022-09-11T09:10:42.091Z,21.2
2022-09-11T09:11:45.077Z,21.2
2022-09-11T09:12:48.222Z,21.2
2022-09-11T09:13:51.954Z,21.1
2022-09-11T09:14:55.026Z,21.2
2022-09-11T09:15:58.126Z,21.2
2022-09-11T09:17:00.926Z,21.3
2022-09-11T09:18:03.738Z,21.3
2022-09-11T09:19:06.888Z,21.2
2022-09-11T09:20:10.319Z,21.5
2022-09-11T09:21:13.026Z,21.5
2022-09-11T09:22:15.881Z,21.4
2022-09-11T09:23:19.933Z,21.5
2022-09-11T09:24:23.163Z,21.4
2022-09-11T09:25:26.782Z,21.3
2022-09-11T09:26:30.144Z,21.2
2022-09-11T09:27:33.030Z,21.3
2022-09-11T09:28:35.830Z,21.2
2022-09-11T09:29:38.818Z,21.3
2022-09-11T09:30:41.529Z,21.2
2022-09-11T09:31:44.599Z,21.1
2022-09-11T09:32:47.593Z,21
2022-09-11T09:33:50.098Z,20.7
2022-09-11T09:34:52.965Z,20.6
2022-09-11T09:35:56.307Z,20.7
2022-09-11T09:36:59.832Z,20.6
2022-09-11T09:38:02.205Z,20.4
2022-09-11T09:39:06.244Z,20.3
2022-09-11T09:40:09.927Z,20.2
2022-09-11T09:41:12.333Z,20.2
2022-09-11T09:42:15.580Z,20.1
2022-09-11T09:43:18.651Z,20.1
2022-09-11T09:44:22.008Z,20
2022-09-11T09:45:25.338Z,20
2022-09-11T09:46:28.423Z,19.9
2022-09-11T09:47:32.440Z,19.9
2022-09-11T09:48:35.575Z,20
2022-09-11T09:49:37.747Z,20
2022-09-11T09:50:41.272Z,20.1
2022-09-11T09:51:43.881Z,20.1
2022-09-11T09:52:46.676Z,20
2022-09-11T09:53:50.169Z,20.1
2022-09-11T09:54:54.227Z,20
2022-09-11T09:55:57.662Z,20
2022-09-11T09:57:00.825Z,20
2022-09-11T09:58:03.253Z,20.1
2022-09-11T09:59:06.129Z,20.2
2022-09-11T10:00:09.564Z,20.3
2022-09-11T10:01:19.212Z,20.3
2022-09-11T10:02:23.615Z,20.1
2022-09-11T10:03:27.158Z,20
2022-09-11T10:04:30.643Z,19.9
2022-09-11T10:05:33.975Z,19.8
2022-09-11T10:06:37.046Z,19.6
2022-09-11T10:07:40.490Z,19.6
2022-09-11T10:08:44.500Z,19.5
2022-09-11T10:09:48.012Z,19.5
2022-09-11T10:10:52.045Z,19.5
2022-09-11T10:11:54.570Z,19.3
2022-09-11T10:13:21.023Z,19.5
2022-09-11T10:14:53.407Z,19.5
2022-09-11T10:15:57.315Z,19.4
2022-09-11T10:16:59.891Z,19.5
2022-09-11T10:18:02.318Z,19.6
2022-09-11T10:19:05.868Z,19.7
2022-09-11T10:20:09.010Z,19.7
2022-09-11T10:21:12.192Z,19.6
2022-09-11T10:22:14.718Z,19.4
2022-09-11T10:23:18.258Z,19.4
2022-09-11T10:24:21.254Z,19.5
2022-09-11T10:25:24.395Z,19.5
2022-09-11T10:26:28.196Z,19.6
2022-09-11T10:27:30.950Z,19.6
2022-09-11T10:28:34.761Z,19.4
2022-09-11T10:29:37.484Z,19.5
2022-09-11T10:30:40.710Z,19.6
2022-09-11T10:31:44.142Z,19.7
2022-09-11T10:32:47.602Z,19.5
2022-09-11T10:33:50.119Z,19.6
2022-09-11T10:34:52.560Z,19.6
2022-09-11T10:35:55.355Z,19.6
2022-09-11T10:36:57.590Z,19.7
2022-09-11T10:38:00.659Z,19.8
2022-09-11T10:39:04.017Z,19.9
2022-09-11T10:40:07.053Z,19.9
2022-09-11T10:41:10.624Z,19.9
2022-09-11T10:42:14.670Z,20
2022-09-11T10:43:18.735Z,19.9
2022-09-11T10:44:21.795Z,19.9
2022-09-11T10:45:24.867Z,19.9
2022-09-11T10:46:27.758Z,20
2022-09-11T10:47:30.623Z,20.2
2022-09-11T10:48:33.280Z,20
2022-09-11T10:49:36.033Z,20.1
2022-09-11T10:50:38.552Z,20.1
2022-09-11T10:51:48.746Z,20.3
2022-09-11T10:52:52.085Z,20.3
2022-09-11T10:53:55.545Z,19.8
2022-09-11T10:54:58.907Z,19.7
2022-09-11T10:56:02.379Z,19.8
2022-09-11T10:57:04.961Z,19.9
2022-09-11T10:58:08.490Z,20.1
2022-09-11T10:59:11.964Z,20.2
2022-09-11T11:00:15.445Z,20.3
2022-09-11T11:01:19.270Z,20.2
2022-09-11T11:02:22.756Z,20.1
2022-09-11T11:03:26.251Z,20.1
2022-09-11T11:04:29.514Z,20
2022-09-11T11:05:32.533Z,20.1
2022-09-11T11:06:35.331Z,19.9
2022-09-11T11:07:38.420Z,19.9
2022-09-11T11:08:41.425Z,19.8
2022-09-11T11:09:44.672Z,19.5
2022-09-11T11:10:47.572Z,19.7
2022-09-11T11:11:51.299Z,19.7
2022-09-11T11:12:54.528Z,19.9
2022-09-11T11:13:58.337Z,20
2022-09-11T11:15:01.765Z,19.9
2022-09-11T11:16:05.157Z,19.9
2022-09-11T11:17:08.022Z,19.8
2022-09-11T11:18:11.116Z,19.8
2022-09-11T11:19:13.271Z,19.7
2022-09-11T11:20:16.168Z,19.9
2022-09-11T11:21:19.391Z,20
2022-09-11T11:22:22.267Z,20.1
2022-09-11T11:23:24.502Z,20.2
2022-09-11T11:24:27.954Z,20.1
2022-09-11T11:25:30.739Z,20
2022-09-11T11:26:33.524Z,19.9
2022-09-11T11:27:36.780Z,20.1
2022-09-11T11:28:39.835Z,20.4
2022-09-11T11:29:43.952Z,20.3
2022-09-11T11:30:47.506Z,20.5
2022-09-11T11:31:50.438Z,20.4
2022-09-11T11:32:54.245Z,20.5
2022-09-11T11:33:57.591Z,20.6
2022-09-11T11:35:00.939Z,20.6
2022-09-11T11:36:04.170Z,20.5
2022-09-11T11:37:07.632Z,20.6
2022-09-11T11:38:10.787Z,20.5
2022-09-11T11:39:13.582Z,20.2
2022-09-11T11:40:16.855Z,20.1
2022-09-11T11:41:19.502Z,20.1
2022-09-11T11:42:22.102Z,20.1
2022-09-11T11:43:25.095Z,20.3
2022-09-11T11:44:27.947Z,20.5
2022-09-11T11:45:31.706Z,20.8
2022-09-11T11:46:35.022Z,20.8
2022-09-11T11:47:37.811Z,20.9
2022-09-11T11:48:41.227Z,21
2022-09-11T11:49:43.790Z,20.9
2022-09-11T11:50:47.239Z,20.9
2022-09-11T11:51:50.109Z,21
2022-09-11T11:52:53.264Z,21
2022-09-11T11:53:56.610Z,20.9
2022-09-11T11:54:59.478Z,20.9
2022-09-11T11:56:02.188Z,20.7
2022-09-11T11:57:05.247Z,20.7
2022-09-11T11:58:08.111Z,20.7
2022-09-11T11:59:11.562Z,20.7
2022-09-11T12:00:15.115Z,20.7
2022-09-11T12:01:19.175Z,20.4
2022-09-11T12:02:22.052Z,20.2
2022-09-11T12:03:25.539Z,20.3
2022-09-11T12:04:28.768Z,20.4
2022-09-11T12:05:32.212Z,20
2022-09-11T12:06:35.375Z,19.9
2022-09-11T12:07:38.426Z,19.8
2022-09-11T12:08:42.008Z,20
2022-09-11T12:09:45.961Z,19.8
2022-09-11T12:10:48.486Z,19.8
2022-09-11T12:11:51.003Z,19.8
2022-09-11T12:12:53.803Z,19.6
2022-09-11T12:13:56.594Z,19.6
2022-09-11T12:14:59.665Z,19.5
2022-09-11T12:16:03.235Z,19.7
2022-09-11T12:17:06.833Z,19.7
2022-09-11T12:18:10.005Z,19.6
2022-09-11T12:19:12.719Z,19.5
2022-09-11T12:20:15.597Z,19.4
2022-09-11T12:21:18.695Z,19.6
2022-09-11T12:22:21.518Z,19.7
2022-09-11T12:23:24.585Z,19.6
2022-09-11T12:24:27.104Z,19.4
2022-09-11T12:25:30.170Z,19.4
2022-09-11T12:26:33.436Z,19.5
2022-09-11T12:27:36.770Z,19.5
2022-09-11T12:28:40.189Z,19.4
2022-09-11T12:29:43.004Z,19.4
2022-09-11T12:30:45.634Z,19.4
2022-09-11T12:31:48.780Z,19.6
2022-09-11T12:32:52.642Z,19.8
2022-09-11T12:33:55.762Z,19.4
2022-09-11T12:34:58.548Z,19.4
2022-09-11T12:36:01.086Z,19.5
2022-09-11T12:37:03.883Z,19.7
2022-09-11T12:38:07.023Z,19.6
2022-09-11T12:39:10.393Z,19.6
2022-09-11T12:40:13.789Z,19.6
2022-09-11T12:41:16.586Z,19.4
2022-09-11T12:42:19.123Z,19.2
2022-09-11T12:43:22.093Z,19.2
2022-09-11T12:44:24.967Z,19.1
2022-09-11T12:45:28.368Z,19.1
2022-09-11T12:46:30.902Z,19
2022-09-11T12:47:34.118Z,19.2
2022-09-11T12:48:38.229Z,19.1
2022-09-11T12:49:41.786Z,19.1
2022-09-11T12:50:44.931Z,19.3
2022-09-11T12:51:47.799Z,19.4
2022-09-11T12:52:51.144Z,19.4
2022-09-11T12:53:53.655Z,19.3
2022-09-11T12:54:56.727Z,19.1
2022-09-11T12:55:59.169Z,19.1
2022-09-11T12:57:02.756Z,19.3
2022-09-11T12:58:05.553Z,19.2
2022-09-11T12:59:07.792Z,19.2
2022-09-11T13:00:10.789Z,19
2022-09-11T13:01:13.772Z,19.1
2022-09-11T13:02:16.723Z,19
2022-09-11T13:03:20.559Z,19.2
2022-09-11T13:04:24.593Z,19.2
2022-09-11T13:05:27.704Z,19.1
2022-09-11T13:06:30.501Z,19.2
2022-09-11T13:07:33.664Z,19.1
2022-09-11T13:08:36.760Z,19.1
2022-09-11T13:09:40.177Z,19.1
2022-09-11T13:10:43.321Z,19.2
2022-09-11T13:11:46.939Z,19.2
2022-09-11T13:12:49.900Z,19.1
2022-09-11T13:13:52.614Z,19
2022-09-11T13:14:55.985Z,19.1
2022-09-11T13:15:58.800Z,19
2022-09-11T13:17:01.599Z,19
2022-09-11T13:18:05.022Z,19.2
2022-09-11T13:19:07.884Z,19.4
2022-09-11T13:20:12.006Z,19.3
2022-09-11T13:21:15.542Z,19.6
2022-09-11T13:22:18.054Z,19.7
2022-09-11T13:23:21.019Z,19.8
2022-09-11T13:24:24.170Z,20
2022-09-11T13:25:27.520Z,19.8
2022-09-11T13:26:30.696Z,19.8
2022-09-11T13:27:33.479Z,20.1
2022-09-11T13:28:36.083Z,20.3
2022-09-11T13:29:39.169Z,20.5
2022-09-11T13:30:42.322Z,20.7
2022-09-11T13:31:45.399Z,20.5
2022-09-11T13:32:48.755Z,21
2022-09-11T13:33:51.453Z,21.2
2022-09-11T13:34:54.877Z,21.3
2022-09-11T13:35:58.741Z,20.9
2022-09-11T13:37:01.870Z,20.7
2022-09-11T13:38:05.881Z,21.3
2022-09-11T13:39:08.600Z,21.4
2022-09-11T13:40:12.419Z,21.4
2022-09-11T13:41:15.531Z,21.6
2022-09-11T13:42:18.676Z,22
2022-09-11T13:43:21.824Z,22
2022-09-11T13:44:25.287Z,22
2022-09-11T13:45:28.396Z,22.4
2022-09-11T13:46:30.997Z,22.2
2022-09-11T13:47:34.084Z,22.1
2022-09-11T13:48:37.503Z,22
2022-09-11T13:49:40.289Z,21.9
2022-09-11T13:50:43.696Z,21.5
2022-09-11T13:51:47.450Z,21.3
2022-09-11T13:52:50.543Z,21.3
2022-09-11T13:53:53.157Z,21.5
2022-09-11T13:54:56.526Z,21.5
2022-09-11T13:55:59.328Z,21.4
2022-09-11T13:57:02.177Z,21.4
2022-09-11T13:58:05.535Z,21.2
2022-09-11T13:59:07.695Z,21.3
2022-09-11T14:00:10.766Z,21.3
2022-09-11T14:01:13.645Z,21.2
2022-09-11T14:02:16.669Z,21.1
2022-09-11T14:03:20.154Z,21.1
2022-09-11T14:04:23.029Z,21.1
2022-09-11T14:05:26.185Z,21.1
2022-09-11T14:06:29.203Z,21.1